createdAt,value
2023-03-04T00:01:55.898Z,10.77
2023-03-04T00:05:58.050Z,8.45
2023-03-04T00:10:00.198Z,8.10
2023-03-04T00:14:02.381Z,11.40
2023-03-04T00:18:04.803Z,13.15
2023-03-04T00:22:07.140Z,13.55
2023-03-04T00:26:09.778Z,9.13
2023-03-04T00:30:13.454Z,8.40
2023-03-04T00:34:15.668Z,12.13
2023-03-04T00:38:17.995Z,10.68
2023-03-04T00:42:20.173Z,11.45
2023-03-04T00:46:22.360Z,9.60
2023-03-04T00:50:24.888Z,10.27
2023-03-04T00:54:27.431Z,12.10
2023-03-04T00:58:29.707Z,10.73
2023-03-04T01:02:31.973Z,11.00
2023-03-04T01:06:34.222Z,11.57
2023-03-04T01:10:36.385Z,15.32
2023-03-04T01:14:38.545Z,13.07
2023-03-04T01:18:41.088Z,12.32
2023-03-04T01:22:44.250Z,11.13
2023-03-04T01:26:46.380Z,11.50
2023-03-04T01:30:49.676Z,12.50
2023-03-04T01:34:52.244Z,11.18
2023-03-04T01:38:54.532Z,12.60
2023-03-04T01:42:56.787Z,14.70
2023-03-04T01:46:59.408Z,18.83
2023-03-04T01:51:04.379Z,12.98
2023-03-04T01:55:16.001Z,12.15
2023-03-04T01:59:27.334Z,12.25
2023-03-04T02:03:33.125Z,13.55
2023-03-04T02:07:42.361Z,12.65
2023-03-04T02:11:47.698Z,24.75
2023-03-04T02:15:49.870Z,12.80
2023-03-04T02:20:09.662Z,12.45
2023-03-04T02:24:20.037Z,10.73
2023-03-04T02:28:22.317Z,14.35
2023-03-04T02:32:24.650Z,18.42
2023-03-04T02:36:28.084Z,10.80
2023-03-04T02:40:33.573Z,7.33
2023-03-04T02:44:40.260Z,14.45
2023-03-04T02:48:42.568Z,9.57
2023-03-04T02:52:44.707Z,16.38
2023-03-04T02:56:50.311Z,12.50
2023-03-04T03:00:53.082Z,10.82
2023-03-04T03:04:55.784Z,9.00
2023-03-04T03:09:01.202Z,18.67
2023-03-04T03:13:05.099Z,11.57
2023-03-04T03:17:07.377Z,11.57
2023-03-04T03:21:10.204Z,9.20
2023-03-04T03:25:14.494Z,7.38
2023-03-04T03:29:16.606Z,9.65
2023-03-04T03:33:18.856Z,11.45
2023-03-04T03:37:21.202Z,6.88
2023-03-04T03:41:23.453Z,9.30
2023-03-04T03:45:25.570Z,8.27
2023-03-04T03:49:27.797Z,12.23
2023-03-04T03:53:30.051Z,6.88
2023-03-04T03:57:32.509Z,6.50
2023-03-04T04:01:34.816Z,6.20
2023-03-04T04:05:37.285Z,6.57
2023-03-04T04:09:39.632Z,7.68
2023-03-04T04:13:41.879Z,7.68
2023-03-04T04:17:44.475Z,6.43
2023-03-04T04:21:47.404Z,7.50
2023-03-04T04:25:49.561Z,10.65
2023-03-04T04:29:51.762Z,8.70
2023-03-04T04:33:53.959Z,6.72
2023-03-04T04:37:56.119Z,7.00
2023-03-04T04:41:58.288Z,8.45
2023-03-04T04:46:02.591Z,10.57
2023-03-04T04:50:07.205Z,10.07
2023-03-04T04:54:10.460Z,11.35
2023-03-04T04:58:16.473Z,9.60
2023-03-04T05:02:18.736Z,10.35
2023-03-04T05:06:22.745Z,10.18
2023-03-04T05:10:24.942Z,13.40
2023-03-04T05:14:27.123Z,11.25
2023-03-04T05:18:29.638Z,11.13
2023-03-04T05:22:32.028Z,17.13
2023-03-04T05:26:34.309Z,8.90
2023-03-04T05:30:36.539Z,12.52
2023-03-04T05:34:38.727Z,12.07
2023-03-04T05:38:41.013Z,8.00
2023-03-04T05:42:43.103Z,9.23
2023-03-04T05:46:45.394Z,11.85
2023-03-04T05:50:48.206Z,6.88
2023-03-04T05:54:50.425Z,9.55
2023-03-04T05:58:52.710Z,9.35
2023-03-04T06:02:55.154Z,9.80
2023-03-04T06:06:57.452Z,9.48
2023-03-04T06:10:59.746Z,7.68
2023-03-04T06:19:46.350Z,12.00
2023-03-04T06:23:48.890Z,5.60
2023-03-04T06:27:51.376Z,11.05
2023-03-04T06:31:54.195Z,7.40
2023-03-04T06:35:57.539Z,8.20
2023-03-04T06:39:59.701Z,7.75
2023-03-04T06:44:01.934Z,9.27
2023-03-04T06:48:04.188Z,5.90
2023-03-04T06:52:06.379Z,8.90
2023-03-04T06:56:11.240Z,5.57
2023-03-04T07:00:14.640Z,7.40
2023-03-04T07:04:17.074Z,11.27
2023-03-04T07:08:21.665Z,10.02
2023-03-04T07:12:24.378Z,9.40
2023-03-04T07:16:26.613Z,5.40
2023-03-04T07:20:31.619Z,5.82
2023-03-04T07:24:34.454Z,9.23
2023-03-04T07:28:36.842Z,7.50
2023-03-04T07:32:39.306Z,5.78
2023-03-04T07:36:42.233Z,5.78
2023-03-04T07:40:44.461Z,7.63
2023-03-04T07:44:49.002Z,4.45
2023-03-04T07:48:51.336Z,6.72
2023-03-04T07:52:53.895Z,6.78
2023-03-04T07:56:56.477Z,7.03
2023-03-04T08:01:09.515Z,8.13
2023-03-04T08:05:12.467Z,11.13
2023-03-04T08:09:15.914Z,10.23
2023-03-04T08:13:18.047Z,6.88
2023-03-04T08:17:20.654Z,7.38
2023-03-04T08:21:25.033Z,8.75
2023-03-04T08:25:27.585Z,7.57
2023-03-04T08:29:30.075Z,11.95
2023-03-04T08:33:33.815Z,9.90
2023-03-04T08:37:35.909Z,6.03
2023-03-04T08:41:38.419Z,7.22
2023-03-04T08:45:40.854Z,6.65
2023-03-04T08:49:43.184Z,8.15
2023-03-04T08:53:47.329Z,10.50
2023-03-04T08:57:49.969Z,5.57
2023-03-04T09:01:52.580Z,10.10
2023-03-04T09:05:55.188Z,6.18
2023-03-04T09:09:57.576Z,6.43
2023-03-04T09:14:10.703Z,4.23
2023-03-04T09:18:15.123Z,8.18
2023-03-04T09:22:17.394Z,4.82
2023-03-04T09:26:23.242Z,5.63
2023-03-04T09:30:26.642Z,4.70
2023-03-04T09:34:30.405Z,4.93
2023-03-04T09:38:32.740Z,7.20
2023-03-04T09:42:47.531Z,5.55
2023-03-04T09:46:51.447Z,5.57
2023-03-04T09:51:23.566Z,6.72
2023-03-04T09:55:35.057Z,8.70
2023-03-04T09:59:46.826Z,7.47
2023-03-04T10:03:58.537Z,7.68
2023-03-04T10:08:15.763Z,8.50
2023-03-04T10:12:25.065Z,8.27
2023-03-04T10:16:36.765Z,11.38
2023-03-04T10:21:22.344Z,9.70
2023-03-04T10:25:31.392Z,10.27
2023-03-04T10:29:34.362Z,10.73
2023-03-04T10:33:39.631Z,8.18
2023-03-04T10:37:51.183Z,7.00
2023-03-04T10:41:57.216Z,9.27
2023-03-04T10:45:59.591Z,5.78
2023-03-04T10:50:05.033Z,10.43
2023-03-04T10:54:22.208Z,5.60
2023-03-04T10:58:24.273Z,7.03
2023-03-04T11:02:37.277Z,7.13
2023-03-04T11:06:42.901Z,8.20
2023-03-04T11:10:46.969Z,11.77
2023-03-04T11:14:54.150Z,10.40
2023-03-04T11:19:04.049Z,8.80
2023-03-04T11:23:14.109Z,8.63
2023-03-04T11:27:21.130Z,11.05
2023-03-04T11:31:39.704Z,9.18
2023-03-04T11:36:05.365Z,5.35
2023-03-04T11:40:25.517Z,3.90
2023-03-04T11:44:27.727Z,7.57
2023-03-04T11:49:31.119Z,6.55
2023-03-04T11:54:23.984Z,5.13
2023-03-04T11:59:37.289Z,8.05
2023-03-04T12:03:59.152Z,4.82
2023-03-04T12:08:01.895Z,8.27
2023-03-04T12:12:34.464Z,11.15
2023-03-04T12:16:53.417Z,5.22
2023-03-04T12:21:49.208Z,6.57
2023-03-04T12:26:11.831Z,5.57
2023-03-04T12:35:48.591Z,7.00
2023-03-04T12:40:12.716Z,7.63
2023-03-04T12:44:24.643Z,2.95
2023-03-04T12:48:45.126Z,4.90
2023-03-04T12:53:31.949Z,6.68
2023-03-04T12:58:05.997Z,6.45
2023-03-04T13:02:55.845Z,6.17
2023-03-04T13:12:07.226Z,7.97
2023-03-04T13:16:44.020Z,3.75
2023-03-04T13:21:06.071Z,5.95
2023-03-04T13:25:35.036Z,3.88
2023-03-04T13:29:38.836Z,6.82
2023-03-04T13:34:31.055Z,4.18
2023-03-04T13:38:54.715Z,5.30
2023-03-04T13:43:31.371Z,9.75
2023-03-04T13:47:45.952Z,5.65
2023-03-04T13:51:51.168Z,5.90
2023-03-04T13:56:26.894Z,5.22
2023-03-04T14:05:01.863Z,5.03
2023-03-04T14:13:49.783Z,4.43
2023-03-04T14:17:56.977Z,5.15
2023-03-04T14:22:46.192Z,8.93
2023-03-04T14:36:04.235Z,6.22
2023-03-04T14:40:09.811Z,5.22
2023-03-04T14:44:23.570Z,4.10
2023-03-04T14:48:34.240Z,4.03
2023-03-04T14:52:55.170Z,9.88
2023-03-04T14:57:27.928Z,6.47
2023-03-04T15:06:53.945Z,5.70
2023-03-04T15:11:06.188Z,6.85
2023-03-04T15:15:39.994Z,6.43
2023-03-04T15:19:44.164Z,5.90
2023-03-04T15:24:22.808Z,3.58
2023-03-04T15:28:45.996Z,4.70
2023-03-04T15:32:56.834Z,3.33
2023-03-04T15:37:04.864Z,5.28
2023-03-04T15:41:22.040Z,3.65
2023-03-04T15:45:52.367Z,6.88
2023-03-04T15:49:59.341Z,6.15
2023-03-04T15:58:23.671Z,4.70
2023-03-04T16:02:37.143Z,6.13
2023-03-04T16:07:02.888Z,7.22
2023-03-04T16:11:09.497Z,5.80
2023-03-04T16:15:19.250Z,4.38
2023-03-04T16:19:33.014Z,5.43
2023-03-04T16:23:42.646Z,4.00
2023-03-04T16:32:42.398Z,6.38
2023-03-04T16:37:01.639Z,5.50
2023-03-04T16:45:49.502Z,6.82
2023-03-04T16:50:03.007Z,6.80
2023-03-04T16:54:21.874Z,8.48
2023-03-04T16:58:58.529Z,8.90
2023-03-04T17:03:20.065Z,5.28
2023-03-04T17:07:57.415Z,5.90
2023-03-04T17:12:12.480Z,7.53
2023-03-04T17:17:07.523Z,6.78
2023-03-04T17:21:29.437Z,6.00
2023-03-04T18:04:15.123Z,12.07
2023-03-04T18:08:23.954Z,9.77
2023-03-04T18:12:27.288Z,9.40
2023-03-04T18:16:31.274Z,17.23
2023-03-04T18:20:34.423Z,8.97
2023-03-04T18:24:43.631Z,8.13
2023-03-04T18:28:49.619Z,8.10
2023-03-04T18:33:00.387Z,8.65
2023-03-04T18:37:04.179Z,10.00
2023-03-04T18:41:14.945Z,7.18
2023-03-04T18:45:18.850Z,8.82
2023-03-04T18:49:23.201Z,8.80
2023-03-04T18:53:28.544Z,11.00
2023-03-04T18:57:36.320Z,15.73
2023-03-04T19:01:41.678Z,21.48
2023-03-04T19:09:49.870Z,13.02
2023-03-04T19:13:57.296Z,19.25
2023-03-04T19:18:08.792Z,14.88
2023-03-04T19:22:18.411Z,14.65
2023-03-04T19:26:24.300Z,13.32
2023-03-04T19:30:50.106Z,7.27
2023-03-04T19:34:57.370Z,10.35
2023-03-04T19:43:05.188Z,11.20
2023-03-04T19:47:08.350Z,9.23
2023-03-04T19:51:17.275Z,8.98
2023-03-04T19:55:30.968Z,13.57
2023-03-04T19:59:42.337Z,14.77
2023-03-04T20:03:58.472Z,14.68
2023-03-04T20:08:04.037Z,25.60
2023-03-04T20:12:07.382Z,37.47
2023-03-04T20:16:13.409Z,17.02
2023-03-04T20:20:17.083Z,17.35
2023-03-04T20:24:21.405Z,16.83
2023-03-04T20:32:29.271Z,18.98
2023-03-04T20:36:32.702Z,21.42
2023-03-04T20:44:40.209Z,14.15
2023-03-04T20:48:43.693Z,15.23
2023-03-04T20:52:48.644Z,21.33
2023-03-04T20:56:52.201Z,19.10
2023-03-04T21:00:55.116Z,14.80
2023-03-04T21:04:57.940Z,15.60
2023-03-04T21:09:04.748Z,15.48
2023-03-04T21:13:16.926Z,20.85
2023-03-04T21:22:05.398Z,19.75
2023-03-04T21:26:11.688Z,17.65
2023-03-04T21:30:19.516Z,19.65
2023-03-04T21:34:41.963Z,17.60
2023-03-04T21:38:47.192Z,20.15
2023-03-04T21:42:55.005Z,19.95
2023-03-04T21:47:01.405Z,18.58
2023-03-04T21:51:07.512Z,20.80
2023-03-04T21:55:11.406Z,19.17
2023-03-04T21:59:15.537Z,16.27
2023-03-04T22:03:21.926Z,19.60
2023-03-04T22:07:25.511Z,26.02
2023-03-04T22:15:33.529Z,12.25
2023-03-04T22:19:36.210Z,20.35
2023-03-04T22:23:42.556Z,16.17
2023-03-04T22:27:45.776Z,16.10
2023-03-04T22:31:48.984Z,18.88
2023-03-04T22:35:53.357Z,11.95
2023-03-04T22:44:01.265Z,13.65
2023-03-04T22:48:04.571Z,13.65
2023-03-04T22:52:08.173Z,13.38
2023-03-04T22:56:15.784Z,14.68
2023-03-04T23:00:25.206Z,13.95
2023-03-04T23:04:28.378Z,10.32
2023-03-04T23:08:31.481Z,12.88
2023-03-04T23:12:35.928Z,13.52
2023-03-04T23:16:43.405Z,12.63
2023-03-04T23:20:46.643Z,15.23
2023-03-04T23:24:50.336Z,19.60
2023-03-04T23:28:56.093Z,16.10
2023-03-04T23:32:59.183Z,15.93
2023-03-04T23:37:02.098Z,14.60
2023-03-04T23:41:05.267Z,13.57
2023-03-04T23:45:09.360Z,12.60
2023-03-04T23:49:14.435Z,12.32
2023-03-04T23:53:18.770Z,12.23
